Wetterdaten: Freitag, 30.01.2015
Datum Zeit Auen-Temp. Temp. -10 cm Luftfeuchte Luftfeuchte Luftdruck Regen Wind Richtung Richtung Taupunkt Windchill Windben
30.01.2015 00:00 -1,5 C 1,6 C 87 % 87 % 978,9 hPa 0,0 l/m 0,3 km/h (0 Bft) S-SO 157 -3,4 C -2,0 C 0,0 km/h (0 Bft)
30.01.2015 00:05 -1,5 C 1,6 C 87 % 87 % 978,4 hPa 0,0 l/m 0,0 km/h (0 Bft) S-SO 157 -3,4 C -2,1 C 0,0 km/h (0 Bft)
30.01.2015 00:10 -1,7 C 1,6 C 87 % 87 % 978,4 hPa 0,0 l/m 0,0 km/h (0 Bft) S-SO 157 -3,6 C -2,4 C 0,0 km/h (0 Bft)
30.01.2015 00:15 -1,7 C 1,6 C 87 % 87 % 978,4 hPa 0,0 l/m 0,0 km/h (0 Bft) O-NO 67 -3,6 C -2,4 C 0,0 km/h (0 Bft)
30.01.2015 00:20 -2,1 C 1,6 C 87 % 87 % 978,4 hPa 0,0 l/m 0,0 km/h (0 Bft) O-NO 67 -4,0 C -2,6 C 0,0 km/h (0 Bft)
30.01.2015 00:25 -2,1 C 1,6 C 87 % 87 % 978,0 hPa 0,0 l/m 0,0 km/h (0 Bft) SO 135 -4,0 C -2,8 C 0,0 km/h (0 Bft)
30.01.2015 00:30 -2,3 C 1,6 C 86 % 86 % 978,0 hPa 0,0 l/m 0,2 km/h (0 Bft) SO 135 -4,3 C -2,9 C 0,0 km/h (0 Bft)
30.01.2015 00:35 -2,5 C 1,6 C 86 % 86 % 978,0 hPa 0,0 l/m 0,2 km/h (0 Bft) N-NW 337 -4,5 C -3,0 C 0,0 km/h (0 Bft)
30.01.2015 00:40 -2,5 C 1,6 C 86 % 86 % 978,0 hPa 0,0 l/m 0,0 km/h (0 Bft) SO 135 -4,5 C -3,3 C 0,0 km/h (0 Bft)
30.01.2015 00:45 -2,7 C 1,6 C 86 % 86 % 977,3 hPa 0,0 l/m 0,0 km/h (0 Bft) O 90 -4,7 C -3,4 C 0,0 km/h (0 Bft)
30.01.2015 00:50 -2,5 C 1,6 C 87 % 87 % 977,3 hPa 0,0 l/m 0,0 km/h (0 Bft) S-SW 202 -4,4 C -3,3 C 0,0 km/h (0 Bft)
30.01.2015 00:55 -2,4 C 1,6 C 87 % 87 % 977,3 hPa 0,0 l/m 0,0 km/h (0 Bft) O-SO 112 -4,3 C -3,2 C 0,0 km/h (0 Bft)
30.01.2015 01:00 -2,5 C 1,6 C 87 % 87 % 977,3 hPa 0,0 l/m 0,0 km/h (0 Bft) O-SO 112 -4,4 C -3,1 C 0,0 km/h (0 Bft)
30.01.2015 01:05 -2,5 C 1,6 C 87 % 87 % 976,6 hPa 0,0 l/m 0,0 km/h (0 Bft) O-SO 112 -4,4 C -3,1 C 0,0 km/h (0 Bft)
30.01.2015 01:10 -2,7 C 1,6 C 87 % 87 % 976,6 hPa 0,0 l/m 0,0 km/h (0 Bft) O-SO 112 -4,6 C -3,2 C 0,0 km/h (0 Bft)
30.01.2015 01:15 -2,6 C 1,6 C 87 % 87 % 976,6 hPa 0,0 l/m 0,0 km/h (0 Bft) S 180 -4,5 C -3,2 C 0,0 km/h (0 Bft)
30.01.2015 01:20 -3,1 C 1,6 C 86 % 86 % 976,6 hPa 0,0 l/m 0,0 km/h (0 Bft) S 180 -5,1 C -3,5 C 0,0 km/h (0 Bft)
30.01.2015 01:25 -3,0 C 1,6 C 86 % 86 % 975,8 hPa 0,0 l/m 0,0 km/h (0 Bft) O-SO 112 -5,0 C -3,6 C 0,0 km/h (0 Bft)
30.01.2015 01:30 -2,8 C 1,6 C 86 % 86 % 975,8 hPa 0,0 l/m 0,0 km/h (0 Bft) O-SO 112 -4,8 C -3,6 C 0,0 km/h (0 Bft)
30.01.2015 01:35 -3,0 C 1,6 C 86 % 86 % 975,8 hPa 0,0 l/m 0,0 km/h (0 Bft) S 180 -5,0 C -3,7 C 0,0 km/h (0 Bft)
30.01.2015 01:40 -3,0 C 1,6 C 87 % 87 % 975,8 hPa 0,0 l/m 0,2 km/h (0 Bft) SW 225 -4,9 C -3,6 C 4,3 km/h (1 Bft)
30.01.2015 01:45 -2,8 C 1,6 C 87 % 87 % 975,5 hPa 0,0 l/m 0,3 km/h (0 Bft) S-SO 157 -4,7 C -3,6 C 0,0 km/h (0 Bft)
30.01.2015 01:50 -2,8 C 1,6 C 87 % 87 % 975,5 hPa 0,0 l/m 0,3 km/h (0 Bft) W 270 -4,7 C -3,5 C 0,0 km/h (0 Bft)
30.01.2015 01:55 -2,8 C 1,6 C 87 % 87 % 975,5 hPa 0,0 l/m 0,8 km/h (0 Bft) W-SW 247 -4,7 C -3,4 C 0,0 km/h (0 Bft)
30.01.2015 02:00 -2,5 C 1,6 C 87 % 87 % 975,5 hPa 0,0 l/m 1,3 km/h (1 Bft) NO 45 -4,4 C -3,1 C 0,0 km/h (0 Bft)
30.01.2015 02:05 -2,7 C 1,6 C 87 % 87 % 975,6 hPa 0,0 l/m 1,1 km/h (1 Bft) W-SW 247 -4,6 C -3,1 C 0,0 km/h (0 Bft)
30.01.2015 02:10 -2,3 C 1,6 C 87 % 87 % 975,6 hPa 0,0 l/m 1,8 km/h (1 Bft) W-SW 247 -4,2 C -3,0 C 2,7 km/h (1 Bft)
30.01.2015 02:15 -2,2 C 1,6 C 87 % 87 % 975,6 hPa 0,0 l/m 1,6 km/h (1 Bft) S 180 -4,1 C -2,8 C 0,0 km/h (0 Bft)
30.01.2015 02:20 -2,2 C 1,6 C 87 % 87 % 975,6 hPa 0,0 l/m 0,5 km/h (0 Bft) SW 225 -4,1 C -2,7 C 1,9 km/h (1 Bft)
30.01.2015 02:25 -2,0 C 1,6 C 87 % 87 % 975,6 hPa 0,0 l/m 0,3 km/h (0 Bft) S 180 -3,9 C -2,6 C 0,0 km/h (0 Bft)
30.01.2015 02:30 -1,9 C 1,6 C 87 % 87 % 975,6 hPa 0,0 l/m 0,6 km/h (0 Bft) N-NO 22 -3,8 C -2,6 C 0,0 km/h (0 Bft)
30.01.2015 02:35 -2,1 C 1,6 C 87 % 87 % 975,6 hPa 0,0 l/m 0,2 km/h (0 Bft) O-NO 67 -4,0 C -2,6 C 0,0 km/h (0 Bft)
30.01.2015 02:40 -1,8 C 1,6 C 87 % 87 % 975,6 hPa 0,0 l/m 0,0 km/h (0 Bft) SO 135 -3,7 C -2,6 C 0,0 km/h (0 Bft)
30.01.2015 02:45 -1,7 C 1,6 C 87 % 87 % 975,4 hPa 0,0 l/m 0,0 km/h (0 Bft) S-SO 157 -3,6 C -2,4 C 0,0 km/h (0 Bft)
30.01.2015 02:50 -1,8 C 1,6 C 87 % 87 % 975,4 hPa 0,0 l/m 0,0 km/h (0 Bft) N-NO 22 -3,7 C -2,4 C 0,0 km/h (0 Bft)
30.01.2015 02:55 -1,7 C 1,6 C 88 % 88 % 975,4 hPa 0,0 l/m 0,0 km/h (0 Bft) S-SW 202 -3,4 C -2,4 C 0,0 km/h (0 Bft)
30.01.2015 03:00 -1,5 C 1,6 C 88 % 88 % 975,4 hPa 0,0 l/m 0,6 km/h (0 Bft) S 180 -3,2 C -2,2 C 1,8 km/h (1 Bft)
30.01.2015 03:05 -1,5 C 1,6 C 88 % 88 % 975,3 hPa 0,0 l/m 0,6 km/h (0 Bft) S-SW 202 -3,2 C -2,2 C 1,6 km/h (1 Bft)
30.01.2015 03:10 -1,6 C 1,6 C 88 % 88 % 975,3 hPa 0,0 l/m 0,8 km/h (0 Bft) NW 315 -3,3 C -2,1 C 2,3 km/h (1 Bft)
30.01.2015 03:15 -1,9 C 1,6 C 88 % 88 % 975,3 hPa 0,0 l/m 0,5 km/h (0 Bft) W-NW 292 -3,6 C -2,3 C 0,0 km/h (0 Bft)
30.01.2015 03:20 -1,5 C 1,6 C 88 % 88 % 975,3 hPa 0,0 l/m 0,5 km/h (0 Bft) W 270 -3,2 C -2,3 C 0,0 km/h (0 Bft)
30.01.2015 03:25 -1,4 C 1,6 C 88 % 88 % 975,4 hPa 0,0 l/m 0,5 km/h (0 Bft) W 270 -3,1 C -2,3 C 0,0 km/h (0 Bft)
30.01.2015 03:30 -1,1 C 1,6 C 88 % 88 % 975,4 hPa 0,0 l/m 1,6 km/h (1 Bft) W 270 -2,8 C -2,2 C 9,8 km/h (2 Bft)
30.01.2015 03:35 -0,8 C 1,6 C 88 % 88 % 975,4 hPa 0,0 l/m 4,0 km/h (1 Bft) N-NW 337 -2,5 C -3,3 C 5,1 km/h (1 Bft)
30.01.2015 03:40 -0,7 C 1,6 C 88 % 88 % 975,4 hPa 0,0 l/m 5,6 km/h (1 Bft) W-NW 292 -2,4 C -3,8 C 12,2 km/h (2 Bft)
30.01.2015 03:45 -0,6 C 1,6 C 87 % 87 % 975,6 hPa 0,0 l/m 5,0 km/h (1 Bft) W-SW 247 -2,5 C -3,6 C 4,5 km/h (1 Bft)
30.01.2015 03:50 -0,4 C 1,6 C 87 % 87 % 975,6 hPa 0,0 l/m 5,6 km/h (1 Bft) W 270 -2,3 C -3,6 C 14,8 km/h (3 Bft)
30.01.2015 03:55 -0,3 C 1,6 C 86 % 87 % 975,6 hPa 0,0 l/m 7,1 km/h (2 Bft) W 270 -2,3 C -4,7 C 8,0 km/h (2 Bft)
30.01.2015 04:00 -0,1 C 1,6 C 83 % 87 % 975,6 hPa 0,0 l/m 9,8 km/h (2 Bft) W 270 -2,6 C -8,0 C 17,5 km/h (3 Bft)
30.01.2015 04:05 -0,1 C 1,6 C 83 % 86 % 976,1 hPa 0,0 l/m 10,8 km/h (2 Bft) W-SW 247 -2,6 C -9,0 C 17,1 km/h (3 Bft)
30.01.2015 04:10 -0,1 C 1,6 C 85 % 86 % 976,1 hPa 0,0 l/m 10,1 km/h (2 Bft) W-SW 247 -2,3 C -8,2 C 7,7 km/h (2 Bft)
30.01.2015 04:15 -0,2 C 1,6 C 85 % 86 % 976,1 hPa 0,0 l/m 8,2 km/h (2 Bft) W 270 -2,4 C -5,7 C 4,2 km/h (1 Bft)
30.01.2015 04:20 -0,3 C 1,6 C 86 % 86 % 976,1 hPa 0,0 l/m 6,3 km/h (2 Bft) W-SW 247 -2,3 C -3,1 C 10,5 km/h (2 Bft)
30.01.2015 04:25 -0,2 C 1,6 C 86 % 86 % 976,5 hPa 0,0 l/m 8,7 km/h (2 Bft) W-NW 292 -2,3 C -6,4 C 15,3 km/h (3 Bft)
30.01.2015 04:30 -0,1 C 1,6 C 86 % 86 % 976,5 hPa 0,0 l/m 10,1 km/h (2 Bft) W-SW 247 -2,2 C -8,2 C 6,4 km/h (2 Bft)
30.01.2015 04:35 -0,2 C 1,6 C 86 % 86 % 976,5 hPa 0,0 l/m 8,4 km/h (2 Bft) W-NW 292 -2,3 C -6,0 C 6,1 km/h (2 Bft)
30.01.2015 04:40 -0,3 C 1,6 C 86 % 86 % 976,5 hPa 0,0 l/m 6,1 km/h (2 Bft) O-SO 112 -2,3 C -2,9 C 4,2 km/h (1 Bft)
30.01.2015 04:45 -0,3 C 1,6 C 87 % 87 % 976,8 hPa 0,0 l/m 5,5 km/h (1 Bft) W-SW 247 -2,2 C -2,7 C 9,8 km/h (2 Bft)
30.01.2015 04:50 -0,3 C 1,6 C 87 % 87 % 976,8 hPa 0,0 l/m 5,1 km/h (1 Bft) SW 225 -2,2 C -2,6 C 7,9 km/h (2 Bft)
30.01.2015 04:55 -0,2 C 1,6 C 87 % 87 % 976,8 hPa 0,0 l/m 6,1 km/h (2 Bft) SW 225 -2,1 C -3,0 C 10,3 km/h (2 Bft)
30.01.2015 05:00 -0,1 C 1,6 C 87 % 87 % 976,8 hPa 0,0 l/m 7,7 km/h (2 Bft) W-SW 247 -2,0 C -5,1 C 21,9 km/h (4 Bft)
30.01.2015 05:05 -0,1 C 1,6 C 87 % 87 % 977,2 hPa 0,0 l/m 8,5 km/h (2 Bft) W 270 -2,0 C -6,1 C 7,6 km/h (2 Bft)
30.01.2015 05:10 -0,1 C 1,6 C 87 % 87 % 977,2 hPa 0,0 l/m 8,7 km/h (2 Bft) S-SW 202 -2,0 C -6,4 C 14,0 km/h (3 Bft)
30.01.2015 05:15 -0,1 C 1,6 C 87 % 87 % 977,2 hPa 0,0 l/m 7,6 km/h (2 Bft) W-SW 247 -2,0 C -4,8 C 8,0 km/h (2 Bft)
30.01.2015 05:20 -0,2 C 1,6 C 87 % 87 % 977,2 hPa 0,0 l/m 6,4 km/h (2 Bft) NW 315 -2,1 C -3,1 C 9,0 km/h (2 Bft)
30.01.2015 05:25 -0,3 C 1,6 C 87 % 87 % 977,6 hPa 0,0 l/m 6,8 km/h (2 Bft) W 270 -2,2 C -3,6 C 10,6 km/h (2 Bft)
30.01.2015 05:30 -0,4 C 1,6 C 86 % 86 % 977,6 hPa 0,0 l/m 9,2 km/h (2 Bft) W 270 -2,4 C -7,1 C 26,1 km/h (4 Bft)
30.01.2015 05:35 -0,6 C 1,6 C 86 % 86 % 977,6 hPa 0,0 l/m 10,5 km/h (2 Bft) W-NW 292 -2,6 C -9,0 C 20,0 km/h (4 Bft)
30.01.2015 05:40 -0,7 C 1,6 C 85 % 85 % 977,6 hPa 0,0 l/m 11,9 km/h (2 Bft) NW 315 -2,9 C -11,0 C 22,7 km/h (4 Bft)
30.01.2015 05:45 -0,8 C 1,6 C 84 % 85 % 977,8 hPa 0,0 l/m 12,4 km/h (3 Bft) NW 315 -3,2 C -11,6 C 17,1 km/h (3 Bft)
30.01.2015 05:50 -0,9 C 1,6 C 84 % 85 % 977,8 hPa 0,0 l/m 10,3 km/h (2 Bft) S 180 -3,3 C -9,5 C 10,0 km/h (2 Bft)
30.01.2015 05:55 -1,0 C 1,6 C 84 % 85 % 977,8 hPa 0,0 l/m 8,4 km/h (2 Bft) W-SW 247 -3,4 C -6,9 C 9,2 km/h (2 Bft)
30.01.2015 06:00 -1,0 C 1,6 C 84 % 85 % 977,8 hPa 0,0 l/m 6,6 km/h (2 Bft) W 270 -3,4 C -4,4 C 13,5 km/h (3 Bft)
30.01.2015 06:05 -0,9 C 1,6 C 84 % 85 % 977,7 hPa 0,0 l/m 6,9 km/h (2 Bft) W 270 -3,3 C -4,9 C 9,0 km/h (2 Bft)
30.01.2015 06:10 -0,9 C 1,6 C 84 % 84 % 977,7 hPa 0,0 l/m 8,7 km/h (2 Bft) W 270 -3,3 C -7,3 C 16,7 km/h (3 Bft)
30.01.2015 06:15 -1,0 C 1,6 C 84 % 84 % 977,7 hPa 0,0 l/m 8,5 km/h (2 Bft) SW 225 -3,4 C -7,1 C 9,7 km/h (2 Bft)
30.01.2015 06:20 -0,9 C 1,6 C 84 % 84 % 977,7 hPa 0,0 l/m 8,4 km/h (2 Bft) W-SW 247 -3,3 C -7,0 C 9,7 km/h (2 Bft)
30.01.2015 06:25 -0,9 C 1,6 C 83 % 84 % 977,8 hPa 0,0 l/m 7,9 km/h (2 Bft) W-SW 247 -3,4 C -6,3 C 7,6 km/h (2 Bft)
30.01.2015 06:30 -0,9 C 1,6 C 82 % 83 % 977,8 hPa 0,0 l/m 8,2 km/h (2 Bft) W 270 -3,6 C -6,7 C 8,9 km/h (2 Bft)
30.01.2015 06:35 -0,9 C 1,6 C 82 % 83 % 977,8 hPa 0,0 l/m 8,2 km/h (2 Bft) SW 225 -3,6 C -6,7 C 5,8 km/h (2 Bft)
30.01.2015 06:40 -1,0 C 1,6 C 83 % 83 % 977,8 hPa 0,0 l/m 7,9 km/h (2 Bft) W-SW 247 -3,5 C -6,4 C 6,6 km/h (2 Bft)
30.01.2015 06:45 -1,1 C 1,6 C 83 % 83 % 978,0 hPa 0,0 l/m 7,1 km/h (2 Bft) W 270 -3,6 C -5,1 C 12,7 km/h (3 Bft)
30.01.2015 06:50 -1,2 C 1,6 C 83 % 83 % 978,0 hPa 0,0 l/m 6,6 km/h (2 Bft) W 270 -3,7 C -4,5 C 4,8 km/h (1 Bft)
30.01.2015 06:55 -1,2 C 1,6 C 83 % 83 % 978,0 hPa 0,0 l/m 6,9 km/h (2 Bft) W-SW 247 -3,7 C -5,0 C 10,3 km/h (2 Bft)
30.01.2015 07:00 -1,3 C 1,6 C 84 % 84 % 978,0 hPa 0,0 l/m 7,6 km/h (2 Bft) W-SW 247 -3,6 C -6,1 C 14,3 km/h (3 Bft)
30.01.2015 07:05 -1,3 C 1,6 C 84 % 84 % 978,9 hPa 0,0 l/m 8,7 km/h (2 Bft) W-SW 247 -3,6 C -7,8 C 17,7 km/h (3 Bft)
30.01.2015 07:10 -1,3 C 1,6 C 84 % 84 % 978,9 hPa 0,0 l/m 9,2 km/h (2 Bft) N 360 -3,6 C -8,4 C 28,5 km/h (4 Bft)
30.01.2015 07:15 -1,5 C 1,6 C 83 % 84 % 978,9 hPa 0,0 l/m 11,1 km/h (2 Bft) W-SW 247 -4,0 C -11,0 C 22,2 km/h (4 Bft)
30.01.2015 07:20 -1,7 C 1,6 C 79 % 84 % 978,9 hPa 0,0 l/m 11,9 km/h (2 Bft) SW 225 -4,8 C -12,2 C 18,2 km/h (3 Bft)
30.01.2015 07:25 -1,7 C 1,6 C 79 % 83 % 979,0 hPa 0,0 l/m 12,1 km/h (2 Bft) W 270 -4,8 C -12,6 C 18,7 km/h (3 Bft)
30.01.2015 07:30 -1,8 C 1,6 C 77 % 82 % 979,0 hPa 0,0 l/m 15,3 km/h (3 Bft) NW 315 -5,3 C -16,0 C 34,3 km/h (5 Bft)
30.01.2015 07:35 -1,9 C 1,6 C 78 % 82 % 979,0 hPa 0,0 l/m 15,3 km/h (3 Bft) W 270 -5,2 C -16,0 C 25,3 km/h (4 Bft)
30.01.2015 07:40 -1,9 C 1,6 C 77 % 81 % 979,0 hPa 0,0 l/m 13,2 km/h (3 Bft) W-SW 247 -5,4 C -14,2 C 15,9 km/h (3 Bft)
30.01.2015 07:45 -1,9 C 1,6 C 77 % 81 % 979,4 hPa 0,0 l/m 13,2 km/h (3 Bft) W-SW 247 -5,4 C -14,2 C 26,6 km/h (4 Bft)
30.01.2015 07:50 -1,9 C 1,6 C 76 % 81 % 979,4 hPa 0,0 l/m 13,8 km/h (3 Bft) W-SW 247 -5,6 C -14,9 C 24,9 km/h (4 Bft)
30.01.2015 07:55 -1,9 C 1,6 C 76 % 81 % 979,4 hPa 0,0 l/m 13,4 km/h (3 Bft) W 270 -5,6 C -14,5 C 16,3 km/h (3 Bft)
30.01.2015 08:00 -1,9 C 1,6 C 76 % 79 % 979,4 hPa 0,0 l/m 12,2 km/h (2 Bft) W 270 -5,6 C -13,1 C 9,0 km/h (2 Bft)
30.01.2015 08:05 -1,9 C 1,6 C 76 % 79 % 979,9 hPa 0,0 l/m 12,7 km/h (3 Bft) S-SW 202 -5,6 C -13,7 C 8,4 km/h (2 Bft)
30.01.2015 08:10 -1,9 C 1,6 C 75 % 79 % 979,9 hPa 0,0 l/m 13,0 km/h (3 Bft) W-SW 247 -5,7 C -14,0 C 18,2 km/h (3 Bft)
30.01.2015 08:15 -2,0 C 1,6 C 76 % 79 % 979,9 hPa 0,0 l/m 13,0 km/h (3 Bft) W-NW 292 -5,6 C -14,1 C 17,7 km/h (3 Bft)
30.01.2015 08:20 -2,0 C 1,6 C 74 % 79 % 979,9 hPa 0,0 l/m 11,9 km/h (2 Bft) W-NW 292 -6,0 C -12,9 C 11,9 km/h (2 Bft)
30.01.2015 08:25 -2,0 C 1,6 C 74 % 78 % 980,2 hPa 0,0 l/m 11,9 km/h (2 Bft) W-SW 247 -6,0 C -12,9 C 18,0 km/h (3 Bft)
30.01.2015 08:30 -2,1 C 1,6 C 73 % 77 % 980,2 hPa 0,0 l/m 12,2 km/h (2 Bft) W 270 -6,3 C -13,2 C 17,9 km/h (3 Bft)
30.01.2015 08:35 -2,0 C 1,6 C 73 % 77 % 980,2 hPa 0,0 l/m 11,4 km/h (2 Bft) NW 315 -6,2 C -12,3 C 11,9 km/h (2 Bft)
30.01.2015 08:40 -2,1 C 1,6 C 73 % 76 % 980,2 hPa 0,0 l/m 9,0 km/h (2 Bft) S 180 -6,3 C -9,3 C 8,9 km/h (2 Bft)
30.01.2015 08:45 -2,1 C 1,6 C 73 % 76 % 980,6 hPa 0,0 l/m 7,7 km/h (2 Bft) SW 225 -6,3 C -7,3 C 7,6 km/h (2 Bft)
30.01.2015 08:50 -1,9 C 1,6 C 72 % 76 % 980,6 hPa 0,0 l/m 7,6 km/h (2 Bft) S 180 -6,3 C -7,2 C 5,0 km/h (1 Bft)
30.01.2015 08:55 -1,9 C 1,6 C 72 % 76 % 980,6 hPa 0,0 l/m 7,9 km/h (2 Bft) W-SW 247 -6,3 C -7,5 C 14,6 km/h (3 Bft)
30.01.2015 09:00 -1,7 C 1,6 C 71 % 75 % 980,6 hPa 0,0 l/m 10,3 km/h (2 Bft) W-SW 247 -6,2 C -10,6 C 14,0 km/h (3 Bft)
30.01.2015 09:05 -1,7 C 1,6 C 72 % 75 % 980,8 hPa 0,0 l/m 12,1 km/h (2 Bft) W-SW 247 -6,1 C -12,7 C 16,3 km/h (3 Bft)
30.01.2015 09:10 -1,8 C 1,6 C 73 % 75 % 980,8 hPa 0,0 l/m 12,7 km/h (3 Bft) W-SW 247 -6,0 C -13,3 C 20,6 km/h (4 Bft)
30.01.2015 09:15 -1,8 C 1,6 C 73 % 75 % 980,8 hPa 0,0 l/m 11,9 km/h (2 Bft) W-SW 247 -6,0 C -12,4 C 8,7 km/h (2 Bft)
30.01.2015 09:20 -1,9 C 1,6 C 71 % 74 % 980,8 hPa 0,0 l/m 12,2 km/h (2 Bft) SW 225 -6,4 C -12,8 C 10,9 km/h (2 Bft)
30.01.2015 09:25 -1,9 C 1,6 C 70 % 74 % 981,2 hPa 0,0 l/m 13,2 km/h (3 Bft) W 270 -6,6 C -13,8 C 16,1 km/h (3 Bft)
30.01.2015 09:30 -1,9 C 1,6 C 68 % 73 % 981,2 hPa 0,0 l/m 12,4 km/h (3 Bft) W 270 -7,0 C -13,1 C 7,9 km/h (2 Bft)
30.01.2015 09:35 -2,0 C 1,6 C 68 % 72 % 981,2 hPa 0,0 l/m 11,9 km/h (2 Bft) S 180 -7,1 C -12,6 C 16,1 km/h (3 Bft)
30.01.2015 09:40 -2,0 C 1,6 C 68 % 71 % 981,2 hPa 0,0 l/m 12,1 km/h (2 Bft) W 270 -7,1 C -12,8 C 18,0 km/h (3 Bft)
30.01.2015 09:45 -1,9 C 1,6 C 68 % 71 % 981,4 hPa 0,0 l/m 12,1 km/h (2 Bft) W-SW 247 -7,0 C -12,8 C 12,7 km/h (3 Bft)
30.01.2015 09:50 -1,9 C 1,6 C 67 % 71 % 981,4 hPa 0,0 l/m 10,3 km/h (2 Bft) W-SW 247 -7,2 C -10,5 C 6,9 km/h (2 Bft)
30.01.2015 09:55 -1,9 C 1,6 C 66 % 70 % 981,4 hPa 0,0 l/m 11,4 km/h (2 Bft) W-NW 292 -7,4 C -11,7 C 19,0 km/h (3 Bft)
30.01.2015 10:00 -1,8 C 1,6 C 66 % 69 % 981,4 hPa 0,0 l/m 11,3 km/h (2 Bft) W-SW 247 -7,3 C -11,6 C 14,3 km/h (3 Bft)
30.01.2015 10:05 -1,8 C 1,6 C 67 % 69 % 981,8 hPa 0,0 l/m 9,3 km/h (2 Bft) NW 315 -7,1 C -8,9 C 10,0 km/h (2 Bft)
30.01.2015 10:10 -1,7 C 1,6 C 66 % 69 % 981,8 hPa 0,0 l/m 7,9 km/h (2 Bft) W 270 -7,2 C -7,0 C 8,0 km/h (2 Bft)
30.01.2015 10:15 -1,5 C 1,6 C 66 % 69 % 981,8 hPa 0,0 l/m 7,1 km/h (2 Bft) W 270 -7,0 C -5,6 C 8,0 km/h (2 Bft)
30.01.2015 10:20 -1,7 C 1,6 C 65 % 69 % 981,8 hPa 0,0 l/m 7,1 km/h (2 Bft) W-SW 247 -7,4 C -5,5 C 14,3 km/h (3 Bft)
30.01.2015 10:25 -1,8 C 1,6 C 64 % 68 % 982,0 hPa 0,0 l/m 10,3 km/h (2 Bft) W 270 -7,7 C -10,1 C 24,6 km/h (4 Bft)
30.01.2015 10:30 -1,7 C 1,6 C 64 % 67 % 982,0 hPa 0,0 l/m 11,9 km/h (2 Bft) W 270 -7,6 C -12,2 C 7,4 km/h (2 Bft)
30.01.2015 10:35 -1,6 C 1,6 C 65 % 68 % 982,0 hPa 0,0 l/m 10,9 km/h (2 Bft) W-SW 247 -7,3 C -11,0 C 9,8 km/h (2 Bft)
30.01.2015 10:40 -1,8 C 1,6 C 63 % 67 % 982,0 hPa 0,0 l/m 11,1 km/h (2 Bft) W 270 -7,9 C -11,1 C 22,5 km/h (4 Bft)
30.01.2015 10:45 -1,7 C 1,6 C 63 % 67 % 982,1 hPa 0,0 l/m 11,4 km/h (2 Bft) W-SW 247 -7,8 C -11,6 C 8,2 km/h (2 Bft)
30.01.2015 10:50 -1,7 C 1,6 C 63 % 66 % 982,1 hPa 0,0 l/m 10,9 km/h (2 Bft) W 270 -7,8 C -10,9 C 16,1 km/h (3 Bft)
30.01.2015 10:55 -1,7 C 1,6 C 63 % 66 % 982,1 hPa 0,0 l/m 10,8 km/h (2 Bft) W-SW 247 -7,8 C -10,7 C 25,9 km/h (4 Bft)
30.01.2015 11:00 -1,5 C 1,6 C 63 % 66 % 982,1 hPa 0,0 l/m 10,1 km/h (2 Bft) W-SW 247 -7,6 C -9,7 C 8,7 km/h (2 Bft)
30.01.2015 11:05 -1,5 C 1,6 C 62 % 66 % 982,2 hPa 0,0 l/m 9,3 km/h (2 Bft) W 270 -7,8 C -8,5 C 13,7 km/h (3 Bft)
30.01.2015 11:10 -1,5 C 1,6 C 62 % 66 % 982,2 hPa 0,0 l/m 9,7 km/h (2 Bft) W 270 -7,8 C -9,0 C 6,4 km/h (2 Bft)
30.01.2015 11:15 -1,3 C 1,6 C 62 % 65 % 982,2 hPa 0,0 l/m 10,1 km/h (2 Bft) W 270 -7,6 C -9,5 C 23,5 km/h (4 Bft)
30.01.2015 11:20 -1,4 C 1,6 C 61 % 65 % 982,2 hPa 0,0 l/m 8,9 km/h (2 Bft) SW 225 -7,9 C -7,9 C 6,1 km/h (2 Bft)
30.01.2015 11:25 -1,3 C 1,6 C 60 % 65 % 982,6 hPa 0,0 l/m 8,7 km/h (2 Bft) W-SW 247 -8,0 C -7,4 C 13,4 km/h (3 Bft)
30.01.2015 11:30 -1,5 C 1,6 C 60 % 64 % 982,6 hPa 0,0 l/m 9,7 km/h (2 Bft) W-SW 247 -8,2 C -9,0 C 11,9 km/h (2 Bft)
30.01.2015 11:35 -1,3 C 1,6 C 60 % 64 % 982,6 hPa 0,0 l/m 10,0 km/h (2 Bft) W-SW 247 -8,0 C -9,2 C 9,8 km/h (2 Bft)
30.01.2015 11:40 -0,8 C 1,5 C 59 % 64 % 982,6 hPa 0,0 l/m 7,9 km/h (2 Bft) W-SW 247 -7,8 C -5,9 C 13,2 km/h (3 Bft)
30.01.2015 11:45 -0,5 C 1,5 C 59 % 64 % 982,2 hPa 0,0 l/m 6,6 km/h (2 Bft) SW 225 -7,5 C -3,6 C 9,3 km/h (2 Bft)
30.01.2015 11:50 -0,4 C 1,5 C 59 % 63 % 982,2 hPa 0,0 l/m 6,6 km/h (2 Bft) W-SW 247 -7,4 C -3,4 C 5,3 km/h (1 Bft)
30.01.2015 11:55 0,0 C 1,5 C 59 % 63 % 982,2 hPa 0,0 l/m 5,8 km/h (2 Bft) W 270 -7,0 C -2,5 C 6,6 km/h (2 Bft)
30.01.2015 12:00 -0,3 C 1,5 C 59 % 63 % 982,2 hPa 0,0 l/m 5,0 km/h (1 Bft) O-NO 67 -7,3 C -2,2 C 6,3 km/h (2 Bft)
30.01.2015 12:05 -0,2 C 1,5 C 58 % 63 % 981,9 hPa 0,0 l/m 5,3 km/h (1 Bft) W 270 -7,4 C -2,2 C 5,8 km/h (2 Bft)
30.01.2015 12:10 -0,1 C 1,5 C 59 % 63 % 981,9 hPa 0,0 l/m 5,0 km/h (1 Bft) W-SW 247 -7,1 C -1,9 C 5,1 km/h (1 Bft)
30.01.2015 12:15 -0,1 C 1,5 C 59 % 63 % 981,9 hPa 0,0 l/m 4,8 km/h (1 Bft) W 270 -7,1 C -1,8 C 4,2 km/h (1 Bft)
30.01.2015 12:20 -0,1 C 1,5 C 59 % 63 % 981,9 hPa 0,0 l/m 4,7 km/h (1 Bft) SW 225 -7,1 C -1,7 C 5,5 km/h (1 Bft)
30.01.2015 12:25 0,2 C 1,5 C 59 % 63 % 981,8 hPa 0,0 l/m 4,5 km/h (1 Bft) W 270 -6,8 C -1,5 C 5,6 km/h (1 Bft)
30.01.2015 12:30 0,6 C 1,5 C 59 % 63 % 981,8 hPa 0,0 l/m 3,5 km/h (1 Bft) W 270 -6,5 C -0,6 C 3,7 km/h (1 Bft)
30.01.2015 12:35 0,1 C 1,5 C 58 % 62 % 981,8 hPa 0,0 l/m 4,2 km/h (1 Bft) W-NW 292 -7,2 C -0,9 C 5,8 km/h (2 Bft)
30.01.2015 12:40 0,4 C 1,5 C 58 % 62 % 981,8 hPa 0,0 l/m 4,5 km/h (1 Bft) W-SW 247 -6,9 C -0,9 C 2,9 km/h (1 Bft)
30.01.2015 12:45 0,6 C 1,5 C 58 % 62 % 981,6 hPa 0,0 l/m 3,9 km/h (1 Bft) NO 45 -6,7 C -0,4 C 6,6 km/h (2 Bft)
30.01.2015 12:50 0,4 C 1,5 C 58 % 62 % 981,6 hPa 0,0 l/m 4,3 km/h (1 Bft) W-SW 247 -6,9 C -0,6 C 6,3 km/h (2 Bft)
30.01.2015 12:55 0,6 C 1,5 C 58 % 62 % 981,6 hPa 0,0 l/m 4,7 km/h (1 Bft) W 270 -6,7 C -0,8 C 4,2 km/h (1 Bft)
30.01.2015 13:00 0,6 C 1,5 C 58 % 61 % 981,6 hPa 0,0 l/m 4,3 km/h (1 Bft) W 270 -6,7 C -0,6 C 4,7 km/h (1 Bft)
30.01.2015 13:05 0,4 C 1,5 C 57 % 61 % 981,4 hPa 0,0 l/m 4,8 km/h (1 Bft) S-SW 202 -7,1 C -0,7 C 9,0 km/h (2 Bft)
30.01.2015 13:10 0,6 C 1,5 C 58 % 61 % 981,4 hPa 0,0 l/m 4,8 km/h (1 Bft) W-SW 247 -6,7 C -0,9 C 3,1 km/h (1 Bft)
30.01.2015 13:15 1,0 C 1,5 C 58 % 61 % 981,4 hPa 0,0 l/m 4,5 km/h (1 Bft) W-SW 247 -6,3 C -0,5 C 6,0 km/h (2 Bft)
30.01.2015 13:20 0,8 C 1,5 C 58 % 61 % 981,4 hPa 0,0 l/m 4,2 km/h (1 Bft) W 270 -6,5 C -0,2 C 4,0 km/h (1 Bft)
30.01.2015 13:25 0,8 C 1,5 C 58 % 61 % 981,3 hPa 0,0 l/m 4,7 km/h (1 Bft) S-SW 202 -6,5 C -0,3 C 7,7 km/h (2 Bft)
30.01.2015 13:30 0,8 C 1,5 C 57 % 61 % 981,3 hPa 0,0 l/m 4,5 km/h (1 Bft) S-SW 202 -6,7 C -0,2 C 8,5 km/h (2 Bft)
30.01.2015 13:35 0,8 C 1,5 C 57 % 60 % 981,3 hPa 0,0 l/m 4,5 km/h (1 Bft) S 180 -6,7 C -0,2 C 5,3 km/h (1 Bft)
30.01.2015 13:40 0,8 C 1,5 C 58 % 61 % 981,3 hPa 0,0 l/m 4,3 km/h (1 Bft) W-NW 292 -6,5 C -0,4 C 4,2 km/h (1 Bft)
30.01.2015 13:45 1,0 C 1,5 C 58 % 61 % 981,1 hPa 0,0 l/m 3,5 km/h (1 Bft) W-SW 247 -6,3 C 0,3 C 3,1 km/h (1 Bft)
30.01.2015 13:50 0,6 C 1,5 C 57 % 61 % 981,1 hPa 0,0 l/m 3,7 km/h (1 Bft) W-SW 247 -6,9 C 0,2 C 3,2 km/h (1 Bft)
30.01.2015 13:55 1,0 C 1,5 C 58 % 61 % 981,1 hPa 0,0 l/m 3,7 km/h (1 Bft) SW 225 -6,3 C 0,1 C 2,1 km/h (1 Bft)
30.01.2015 14:00 1,1 C 1,5 C 57 % 61 % 981,1 hPa 0,0 l/m 2,9 km/h (1 Bft) W-SW 247 -6,4 C 0,7 C 3,9 km/h (1 Bft)
30.01.2015 14:05 0,7 C 1,5 C 57 % 61 % 981,1 hPa 0,0 l/m 3,1 km/h (1 Bft) W 270 -6,8 C 0,4 C 3,4 km/h (1 Bft)
30.01.2015 14:10 0,9 C 1,5 C 57 % 61 % 981,1 hPa 0,0 l/m 3,2 km/h (1 Bft) SW 225 -6,6 C 0,4 C 5,5 km/h (1 Bft)
30.01.2015 14:15 0,7 C 1,5 C 57 % 61 % 981,1 hPa 0,0 l/m 3,1 km/h (1 Bft) W-SW 247 -6,8 C 0,3 C 5,1 km/h (1 Bft)
30.01.2015 14:20 0,7 C 1,5 C 57 % 61 % 981,1 hPa 0,0 l/m 4,2 km/h (1 Bft) W 270 -6,8 C -0,5 C 3,2 km/h (1 Bft)
30.01.2015 14:25 0,8 C 1,5 C 58 % 61 % 981,1 hPa 0,0 l/m 3,9 km/h (1 Bft) W-SW 247 -6,5 C -0,3 C 2,1 km/h (1 Bft)
30.01.2015 14:30 0,8 C 1,5 C 57 % 61 % 981,1 hPa 0,0 l/m 2,9 km/h (1 Bft) SW 225 -6,7 C 0,4 C 3,2 km/h (1 Bft)
30.01.2015 14:35 1,0 C 1,5 C 57 % 61 % 981,1 hPa 0,0 l/m 3,2 km/h (1 Bft) SW 225 -6,5 C 0,3 C 4,8 km/h (1 Bft)
30.01.2015 14:40 1,1 C 1,5 C 57 % 61 % 981,1 hPa 0,0 l/m 3,1 km/h (1 Bft) NW 315 -6,4 C 0,4 C 2,3 km/h (1 Bft)
30.01.2015 14:45 1,2 C 1,5 C 58 % 61 % 980,8 hPa 0,0 l/m 2,4 km/h (1 Bft) W-SW 247 -6,1 C 1,1 C 1,9 km/h (1 Bft)
30.01.2015 14:50 1,0 C 1,5 C 57 % 61 % 980,8 hPa 0,0 l/m 2,6 km/h (1 Bft) W-NW 292 -6,5 C 1,1 C 4,7 km/h (1 Bft)
30.01.2015 14:55 0,9 C 1,5 C 57 % 61 % 980,8 hPa 0,0 l/m 3,5 km/h (1 Bft) W 270 -6,6 C 0,4 C 5,3 km/h (1 Bft)
30.01.2015 15:00 0,9 C 1,5 C 57 % 62 % 980,8 hPa 0,0 l/m 3,4 km/h (1 Bft) S 180 -6,6 C 0,6 C 5,8 km/h (2 Bft)
30.01.2015 15:05 0,7 C 1,5 C 58 % 61 % 981,0 hPa 0,0 l/m 3,7 km/h (1 Bft) W-SW 247 -6,6 C -0,1 C 6,1 km/h (2 Bft)
30.01.2015 15:10 0,5 C 1,5 C 58 % 62 % 981,0 hPa 0,0 l/m 3,5 km/h (1 Bft) W-SW 247 -6,8 C -0,2 C 2,1 km/h (1 Bft)
30.01.2015 15:15 0,5 C 1,5 C 58 % 62 % 981,0 hPa 0,0 l/m 3,1 km/h (1 Bft) W-SW 247 -6,8 C 0,1 C 6,3 km/h (2 Bft)
30.01.2015 15:20 0,4 C 1,5 C 58 % 62 % 981,0 hPa 0,0 l/m 3,5 km/h (1 Bft) W-SW 247 -6,9 C -0,4 C 8,7 km/h (2 Bft)
30.01.2015 15:25 0,3 C 1,5 C 58 % 62 % 980,9 hPa 0,0 l/m 4,3 km/h (1 Bft) SW 225 -7,0 C -0,9 C 4,0 km/h (1 Bft)
30.01.2015 15:30 0,4 C 1,5 C 58 % 62 % 980,9 hPa 0,0 l/m 4,2 km/h (1 Bft) W-SW 247 -6,9 C -0,9 C 4,0 km/h (1 Bft)
30.01.2015 15:35 0,4 C 1,5 C 59 % 62 % 980,9 hPa 0,0 l/m 3,4 km/h (1 Bft) SW 225 -6,7 C -0,4 C 5,3 km/h (1 Bft)
30.01.2015 15:40 0,3 C 1,5 C 59 % 63 % 980,9 hPa 0,0 l/m 3,2 km/h (1 Bft) W-SW 247 -6,8 C -0,5 C 4,3 km/h (1 Bft)
30.01.2015 15:45 0,2 C 1,5 C 59 % 63 % 980,8 hPa 0,0 l/m 3,2 km/h (1 Bft) W 270 -6,8 C -0,6 C 5,3 km/h (1 Bft)
30.01.2015 15:50 -0,2 C 1,5 C 59 % 63 % 980,8 hPa 0,0 l/m 2,9 km/h (1 Bft) W 270 -7,2 C -0,7 C 2,3 km/h (1 Bft)
30.01.2015 15:55 -0,4 C 1,5 C 60 % 64 % 980,8 hPa 0,0 l/m 2,4 km/h (1 Bft) W 270 -7,2 C -0,7 C 1,8 km/h (1 Bft)
30.01.2015 16:00 -0,5 C 1,5 C 61 % 64 % 980,8 hPa 0,0 l/m 1,4 km/h (1 Bft) NW 315 -7,1 C -0,8 C 2,7 km/h (1 Bft)
30.01.2015 16:05 -0,5 C 1,5 C 61 % 64 % 980,8 hPa 0,0 l/m 1,4 km/h (1 Bft) NW 315 -7,1 C -0,8 C 2,7 km/h (1 Bft)
30.01.2015 16:10 -0,7 C 1,5 C 61 % 65 % 980,6 hPa 0,0 l/m 1,6 km/h (1 Bft) SW 225 -7,3 C -1,0 C 3,5 km/h (1 Bft)
30.01.2015 16:15 -0,8 C 1,6 C 62 % 65 % 980,6 hPa 0,0 l/m 2,7 km/h (1 Bft) W-SW 247 -7,1 C -1,7 C 2,6 km/h (1 Bft)
30.01.2015 16:20 -0,9 C 1,6 C 62 % 65 % 980,6 hPa 0,0 l/m 2,6 km/h (1 Bft) S 180 -7,2 C -1,7 C 0,0 km/h (0 Bft)
30.01.2015 16:25 -1,1 C 1,6 C 62 % 65 % 980,6 hPa 0,0 l/m 2,6 km/h (1 Bft) S 180 -7,4 C -1,8 C 2,7 km/h (1 Bft)
30.01.2015 16:30 -1,1 C 1,6 C 63 % 65 % 980,3 hPa 0,0 l/m 3,1 km/h (1 Bft) O-NO 67 -7,2 C -2,4 C 4,3 km/h (1 Bft)
30.01.2015 16:35 -1,3 C 1,6 C 63 % 66 % 980,3 hPa 0,0 l/m 2,6 km/h (1 Bft) S 180 -7,4 C -2,1 C 3,4 km/h (1 Bft)
30.01.2015 16:40 -1,3 C 1,6 C 63 % 66 % 980,3 hPa 0,0 l/m 2,3 km/h (1 Bft) S 180 -7,4 C -1,9 C 0,0 km/h (0 Bft)
30.01.2015 16:45 -1,4 C 1,6 C 63 % 66 % 980,3 hPa 0,0 l/m 2,7 km/h (1 Bft) S-SW 202 -7,5 C -2,4 C 3,2 km/h (1 Bft)
30.01.2015 16:50 -1,5 C 1,6 C 64 % 66 % 980,1 hPa 0,0 l/m 2,9 km/h (1 Bft) W-SW 247 -7,4 C -2,7 C 2,6 km/h (1 Bft)
30.01.2015 16:55 -1,6 C 1,6 C 64 % 66 % 980,1 hPa 0,0 l/m 2,9 km/h (1 Bft) SW 225 -7,5 C -2,8 C 3,5 km/h (1 Bft)
30.01.2015 17:00 -1,7 C 1,6 C 64 % 66 % 980,1 hPa 0,0 l/m 2,9 km/h (1 Bft) W 270 -7,6 C -2,8 C 3,2 km/h (1 Bft)
30.01.2015 17:05 -1,7 C 1,6 C 64 % 67 % 980,1 hPa 0,0 l/m 2,7 km/h (1 Bft) S-SW 202 -7,6 C -2,7 C 2,3 km/h (1 Bft)
30.01.2015 17:10 -1,8 C 1,6 C 65 % 67 % 979,9 hPa 0,0 l/m 2,7 km/h (1 Bft) W-SW 247 -7,5 C -2,9 C 3,4 km/h (1 Bft)
30.01.2015 17:15 -1,9 C 1,6 C 65 % 67 % 979,9 hPa 0,0 l/m 2,9 km/h (1 Bft) W-SW 247 -7,6 C -3,1 C 3,4 km/h (1 Bft)
30.01.2015 17:20 -2,0 C 1,6 C 66 % 67 % 979,9 hPa 0,0 l/m 3,2 km/h (1 Bft) SW 225 -7,5 C -3,3 C 5,3 km/h (1 Bft)
30.01.2015 17:25 -2,0 C 1,6 C 66 % 67 % 979,9 hPa 0,0 l/m 3,5 km/h (1 Bft) W 270 -7,5 C -3,7 C 3,4 km/h (1 Bft)
30.01.2015 17:30 -2,1 C 1,6 C 67 % 68 % 979,8 hPa 0,0 l/m 3,1 km/h (1 Bft) W 270 -7,4 C -3,4 C 2,3 km/h (1 Bft)
30.01.2015 17:35 -2,3 C 1,5 C 68 % 68 % 979,8 hPa 0,0 l/m 1,9 km/h (1 Bft) SW 225 -7,4 C -2,8 C 2,9 km/h (1 Bft)
30.01.2015 17:40 -2,3 C 1,5 C 69 % 69 % 979,8 hPa 0,0 l/m 2,3 km/h (1 Bft) SW 225 -7,2 C -2,9 C 4,5 km/h (1 Bft)
30.01.2015 17:45 -2,4 C 1,5 C 69 % 69 % 979,8 hPa 0,0 l/m 3,5 km/h (1 Bft) S-SW 202 -7,3 C -4,1 C 4,3 km/h (1 Bft)
30.01.2015 17:50 -2,4 C 1,5 C 70 % 70 % 979,9 hPa 0,0 l/m 3,7 km/h (1 Bft) S 180 -7,1 C -4,3 C 8,0 km/h (2 Bft)
30.01.2015 17:55 -2,5 C 1,5 C 71 % 71 % 979,9 hPa 0,0 l/m 3,9 km/h (1 Bft) S 180 -7,0 C -4,4 C 5,6 km/h (1 Bft)
30.01.2015 18:00 -2,5 C 1,5 C 72 % 72 % 979,9 hPa 0,0 l/m 4,7 km/h (1 Bft) SW 225 -6,8 C -4,9 C 5,8 km/h (2 Bft)
30.01.2015 18:05 -2,9 C 1,5 C 73 % 73 % 979,9 hPa 0,0 l/m 5,0 km/h (1 Bft) W-SW 247 -7,0 C -5,4 C 3,7 km/h (1 Bft)
30.01.2015 18:10 -2,8 C 1,5 C 73 % 73 % 979,8 hPa 0,0 l/m 4,2 km/h (1 Bft) S-SW 202 -6,9 C -5,2 C 4,3 km/h (1 Bft)
30.01.2015 18:15 -2,9 C 1,5 C 74 % 74 % 979,8 hPa 0,0 l/m 3,9 km/h (1 Bft) W-SW 247 -6,9 C -5,2 C 8,2 km/h (2 Bft)
30.01.2015 18:20 -2,9 C 1,5 C 74 % 74 % 979,8 hPa 0,0 l/m 4,0 km/h (1 Bft) S-SW 202 -6,9 C -5,3 C 6,0 km/h (2 Bft)
30.01.2015 18:25 -2,9 C 1,5 C 74 % 74 % 979,8 hPa 0,0 l/m 4,2 km/h (1 Bft) S 180 -6,9 C -5,4 C 3,9 km/h (1 Bft)
30.01.2015 18:30 -2,9 C 1,5 C 74 % 74 % 979,8 hPa 0,0 l/m 4,3 km/h (1 Bft) W-SW 247 -6,9 C -5,6 C 6,8 km/h (2 Bft)
30.01.2015 18:35 -2,9 C 1,5 C 73 % 74 % 979,8 hPa 0,0 l/m 3,9 km/h (1 Bft) SW 225 -7,0 C -5,3 C 4,3 km/h (1 Bft)
30.01.2015 18:40 -3,1 C 1,5 C 73 % 73 % 979,8 hPa 0,0 l/m 3,9 km/h (1 Bft) SW 225 -7,2 C -5,3 C 5,6 km/h (1 Bft)
30.01.2015 18:45 -3,2 C 1,5 C 72 % 73 % 979,8 hPa 0,0 l/m 3,5 km/h (1 Bft) S 180 -7,5 C -5,4 C 3,9 km/h (1 Bft)
30.01.2015 18:50 -3,3 C 1,5 C 72 % 73 % 979,3 hPa 0,0 l/m 3,4 km/h (1 Bft) SW 225 -7,6 C -5,4 C 5,6 km/h (1 Bft)
30.01.2015 18:55 -3,4 C 1,5 C 72 % 73 % 979,3 hPa 0,0 l/m 3,4 km/h (1 Bft) SW 225 -7,7 C -5,6 C 3,5 km/h (1 Bft)
30.01.2015 19:00 -3,5 C 1,5 C 72 % 73 % 979,3 hPa 0,0 l/m 3,4 km/h (1 Bft) S 180 -7,8 C -5,7 C 3,5 km/h (1 Bft)
30.01.2015 19:05 -3,6 C 1,5 C 72 % 73 % 979,3 hPa 0,0 l/m 3,2 km/h (1 Bft) S-SW 202 -7,9 C -5,8 C 3,9 km/h (1 Bft)
30.01.2015 19:10 -3,6 C 1,5 C 72 % 73 % 979,5 hPa 0,0 l/m 3,2 km/h (1 Bft) S 180 -7,9 C -5,8 C 2,7 km/h (1 Bft)
30.01.2015 19:15 -3,6 C 1,5 C 72 % 73 % 979,5 hPa 0,0 l/m 3,5 km/h (1 Bft) W-SW 247 -7,9 C -6,1 C 2,7 km/h (1 Bft)
30.01.2015 19:20 -3,5 C 1,5 C 72 % 73 % 979,5 hPa 0,0 l/m 3,9 km/h (1 Bft) SW 225 -7,8 C -6,3 C 4,3 km/h (1 Bft)
30.01.2015 19:25 -3,3 C 1,5 C 71 % 73 % 979,5 hPa 0,0 l/m 4,7 km/h (1 Bft) SW 225 -7,8 C -6,7 C 5,1 km/h (1 Bft)
30.01.2015 19:30 -3,5 C 1,5 C 71 % 73 % 979,5 hPa 0,0 l/m 4,7 km/h (1 Bft) SW 225 -8,0 C -6,7 C 4,0 km/h (1 Bft)
30.01.2015 19:35 -4,1 C 1,5 C 70 % 72 % 979,5 hPa 0,0 l/m 3,1 km/h (1 Bft) W-SW 247 -8,7 C -5,9 C 3,1 km/h (1 Bft)
30.01.2015 19:40 -4,4 C 1,5 C 70 % 72 % 979,5 hPa 0,0 l/m 1,6 km/h (1 Bft) S-SO 157 -9,0 C -5,1 C 0,0 km/h (0 Bft)
30.01.2015 19:45 -4,9 C 1,6 C 71 % 73 % 979,5 hPa 0,0 l/m 0,3 km/h (0 Bft) S-SO 157 -9,3 C -5,8 C 0,0 km/h (0 Bft)
30.01.2015 19:50 -5,1 C 1,6 C 71 % 73 % 978,9 hPa 0,0 l/m 0,2 km/h (0 Bft) S-SO 157 -9,5 C -6,2 C 0,0 km/h (0 Bft)
30.01.2015 19:55 -5,3 C 1,6 C 72 % 73 % 978,9 hPa 0,0 l/m 0,0 km/h (0 Bft) SO 135 -9,5 C -6,6 C 0,0 km/h (0 Bft)
30.01.2015 20:00 -5,3 C 1,6 C 73 % 74 % 978,9 hPa 0,0 l/m 0,2 km/h (0 Bft) SO 135 -9,4 C -6,7 C 0,0 km/h (0 Bft)
30.01.2015 20:05 -5,4 C 1,6 C 73 % 74 % 978,9 hPa 0,0 l/m 0,2 km/h (0 Bft) SO 135 -9,5 C -6,7 C 0,0 km/h (0 Bft)
30.01.2015 20:10 -5,4 C 1,6 C 73 % 75 % 979,2 hPa 0,0 l/m 0,2 km/h (0 Bft) S 180 -9,5 C -6,8 C 0,0 km/h (0 Bft)
30.01.2015 20:15 -5,5 C 1,6 C 74 % 75 % 979,2 hPa 0,0 l/m 0,2 km/h (0 Bft) S 180 -9,4 C -6,8 C 0,0 km/h (0 Bft)
30.01.2015 20:20 -5,5 C 1,6 C 74 % 75 % 979,2 hPa 0,0 l/m 0,3 km/h (0 Bft) S 180 -9,4 C -6,8 C 2,3 km/h (1 Bft)
30.01.2015 20:25 -5,6 C 1,6 C 74 % 75 % 979,2 hPa 0,0 l/m 0,6 km/h (0 Bft) S-SO 157 -9,5 C -6,7 C 0,0 km/h (0 Bft)
30.01.2015 20:30 -5,7 C 1,6 C 74 % 75 % 979,2 hPa 0,0 l/m 0,5 km/h (0 Bft) S 180 -9,6 C -6,8 C 0,0 km/h (0 Bft)
30.01.2015 20:35 -5,9 C 1,6 C 74 % 75 % 979,2 hPa 0,0 l/m 0,2 km/h (0 Bft) S-SO 157 -9,8 C -7,0 C 0,0 km/h (0 Bft)
30.01.2015 20:40 -6,0 C 1,6 C 74 % 75 % 979,2 hPa 0,0 l/m 0,2 km/h (0 Bft) SO 135 -9,9 C -7,2 C 0,0 km/h (0 Bft)
30.01.2015 20:45 -6,5 C 1,6 C 74 % 75 % 979,2 hPa 0,0 l/m 0,0 km/h (0 Bft) O-SO 112 -10,3 C -7,6 C 0,0 km/h (0 Bft)
30.01.2015 20:50 -6,9 C 1,5 C 74 % 75 % 979,3 hPa 0,0 l/m 0,0 km/h (0 Bft) O-NO 67 -10,7 C -7,8 C 0,0 km/h (0 Bft)
30.01.2015 20:55 -7,2 C 1,5 C 74 % 75 % 979,3 hPa 0,0 l/m 0,0 km/h (0 Bft) NO 45 -11,0 C -8,2 C 0,0 km/h (0 Bft)
30.01.2015 21:00 -7,3 C 1,5 C 74 % 75 % 979,3 hPa 0,0 l/m 0,2 km/h (0 Bft) SO 135 -11,1 C -8,3 C 2,1 km/h (1 Bft)
30.01.2015 21:05 -6,9 C 1,5 C 76 % 76 % 979,3 hPa 0,0 l/m 0,2 km/h (0 Bft) N-NO 22 -10,4 C -8,0 C 0,0 km/h (0 Bft)
30.01.2015 21:10 -6,8 C 1,5 C 76 % 76 % 979,4 hPa 0,0 l/m 0,3 km/h (0 Bft) SO 135 -10,3 C -7,7 C 0,0 km/h (0 Bft)
30.01.2015 21:15 -6,0 C 1,6 C 77 % 77 % 979,4 hPa 0,0 l/m 0,6 km/h (0 Bft) SO 135 -9,4 C -7,1 C 0,0 km/h (0 Bft)
30.01.2015 21:20 -5,9 C 1,6 C 77 % 77 % 979,4 hPa 0,0 l/m 0,5 km/h (0 Bft) S 180 -9,3 C -6,9 C 0,0 km/h (0 Bft)
30.01.2015 21:25 -5,9 C 1,6 C 77 % 77 % 979,4 hPa 0,0 l/m 0,2 km/h (0 Bft) S-SO 157 -9,3 C -6,9 C 0,0 km/h (0 Bft)
30.01.2015 21:30 -5,9 C 1,6 C 77 % 77 % 978,9 hPa 0,0 l/m 0,0 km/h (0 Bft) S 180 -9,3 C -7,0 C 0,0 km/h (0 Bft)
30.01.2015 21:35 -5,9 C 1,6 C 77 % 77 % 978,9 hPa 0,0 l/m 0,2 km/h (0 Bft) S-SW 202 -9,3 C -7,2 C 0,0 km/h (0 Bft)
30.01.2015 21:40 -6,0 C 1,6 C 77 % 77 % 978,9 hPa 0,0 l/m 0,2 km/h (0 Bft) O-SO 112 -9,4 C -7,2 C 0,0 km/h (0 Bft)
30.01.2015 21:45 -5,9 C 1,6 C 77 % 77 % 978,9 hPa 0,0 l/m 0,3 km/h (0 Bft) S-SW 202 -9,3 C -7,1 C 0,0 km/h (0 Bft)
30.01.2015 21:50 -5,3 C 1,6 C 78 % 78 % 979,1 hPa 0,0 l/m 1,3 km/h (1 Bft) S 180 -8,5 C -7,1 C 3,1 km/h (1 Bft)
30.01.2015 21:55 -4,3 C 1,6 C 77 % 77 % 979,1 hPa 0,0 l/m 3,7 km/h (1 Bft) SW 225 -7,7 C -7,8 C 5,0 km/h (1 Bft)
30.01.2015 22:00 -4,2 C 1,6 C 76 % 77 % 979,1 hPa 0,0 l/m 4,3 km/h (1 Bft) SW 225 -7,8 C -7,6 C 5,5 km/h (1 Bft)
30.01.2015 22:05 -4,0 C 1,6 C 74 % 76 % 979,1 hPa 0,0 l/m 4,0 km/h (1 Bft) SW 225 -7,9 C -6,7 C 4,3 km/h (1 Bft)
30.01.2015 22:10 -4,1 C 1,6 C 73 % 75 % 979,2 hPa 0,0 l/m 3,7 km/h (1 Bft) W-SW 247 -8,2 C -6,4 C 3,2 km/h (1 Bft)
30.01.2015 22:15 -4,1 C 1,6 C 72 % 74 % 979,2 hPa 0,0 l/m 3,1 km/h (1 Bft) NW 315 -8,4 C -6,0 C 4,3 km/h (1 Bft)
30.01.2015 22:20 -4,0 C 1,6 C 72 % 74 % 979,2 hPa 0,0 l/m 3,1 km/h (1 Bft) S 180 -8,3 C -5,9 C 5,0 km/h (1 Bft)
30.01.2015 22:25 -3,7 C 1,5 C 70 % 73 % 979,2 hPa 0,0 l/m 3,7 km/h (1 Bft) S-SW 202 -8,4 C -6,0 C 3,9 km/h (1 Bft)
30.01.2015 22:30 -3,5 C 1,5 C 69 % 72 % 979,1 hPa 0,0 l/m 4,7 km/h (1 Bft) S-SO 157 -8,3 C -6,4 C 6,8 km/h (2 Bft)
30.01.2015 22:35 -3,3 C 1,5 C 68 % 71 % 979,1 hPa 0,0 l/m 5,0 km/h (1 Bft) S 180 -8,3 C -6,4 C 5,5 km/h (1 Bft)
30.01.2015 22:40 -3,4 C 1,5 C 67 % 70 % 979,1 hPa 0,0 l/m 4,8 km/h (1 Bft) SW 225 -8,6 C -6,3 C 4,8 km/h (1 Bft)
30.01.2015 22:45 -3,3 C 1,5 C 67 % 69 % 979,1 hPa 0,0 l/m 4,8 km/h (1 Bft) S-SW 202 -8,5 C -6,3 C 5,6 km/h (1 Bft)
30.01.2015 22:50 -3,3 C 1,5 C 67 % 69 % 979,2 hPa 0,0 l/m 4,7 km/h (1 Bft) SW 225 -8,5 C -6,2 C 4,3 km/h (1 Bft)
30.01.2015 22:55 -3,2 C 1,5 C 67 % 69 % 979,2 hPa 0,0 l/m 4,3 km/h (1 Bft) S-SO 157 -8,4 C -5,9 C 5,0 km/h (1 Bft)
30.01.2015 23:00 -3,1 C 1,5 C 67 % 69 % 979,2 hPa 0,0 l/m 4,3 km/h (1 Bft) O-SO 112 -8,3 C -5,6 C 5,3 km/h (1 Bft)
30.01.2015 23:05 -2,9 C 1,5 C 67 % 69 % 979,2 hPa 0,0 l/m 4,3 km/h (1 Bft) SW 225 -8,1 C -5,4 C 6,8 km/h (2 Bft)
30.01.2015 23:10 -2,7 C 1,5 C 67 % 69 % 979,8 hPa 0,0 l/m 4,3 km/h (1 Bft) W-SW 247 -8,0 C -5,2 C 4,0 km/h (1 Bft)
30.01.2015 23:15 -2,7 C 1,5 C 67 % 69 % 979,8 hPa 0,0 l/m 4,3 km/h (1 Bft) W-SW 247 -8,0 C -5,1 C 3,5 km/h (1 Bft)
30.01.2015 23:20 -2,6 C 1,5 C 67 % 69 % 979,8 hPa 0,0 l/m 4,3 km/h (1 Bft) SW 225 -7,9 C -4,9 C 4,7 km/h (1 Bft)
30.01.2015 23:25 -2,4 C 1,5 C 67 % 69 % 979,8 hPa 0,0 l/m 4,5 km/h (1 Bft) W-SW 247 -7,7 C -4,8 C 5,0 km/h (1 Bft)
30.01.2015 23:30 -2,3 C 1,5 C 67 % 69 % 979,6 hPa 0,0 l/m 5,0 km/h (1 Bft) W 270 -7,6 C -4,9 C 6,3 km/h (2 Bft)
30.01.2015 23:35 -2,3 C 1,5 C 67 % 69 % 979,6 hPa 0,0 l/m 5,5 km/h (1 Bft) W-SW 247 -7,6 C -5,0 C 10,1 km/h (2 Bft)
30.01.2015 23:40 -2,2 C 1,5 C 68 % 69 % 979,6 hPa 0,0 l/m 5,0 km/h (1 Bft) W-SW 247 -7,3 C -4,7 C 6,6 km/h (2 Bft)
30.01.2015 23:45 -2,4 C 1,5 C 69 % 69 % 979,6 hPa 0,0 l/m 5,3 km/h (1 Bft) W 270 -7,3 C -4,9 C 7,7 km/h (2 Bft)
30.01.2015 23:50 -2,3 C 1,5 C 69 % 70 % 979,7 hPa 0,0 l/m 5,6 km/h (1 Bft) S-SO 157 -7,2 C -5,1 C 9,0 km/h (2 Bft)
30.01.2015 23:55 -2,3 C 1,5 C 70 % 71 % 979,7 hPa 0,0 l/m 5,8 km/h (2 Bft) W-SW 247 -7,0 C -5,3 C 6,9 km/h (2 Bft)
_ Min-Zeit 21:00 23:55 15:00 13:35 03:20 - 21:30 - - 21:00 07:35 21:45
Minimum _ -7,3 C 1,5 C 57 % 60 % 975,3 hPa - 0,0 km/h (0 Bft) - - -11,1 C -16,0 C 0,0 km/h (0 Bft)
_ Max-Zeit 14:45 22:20 03:40 03:40 11:40 23:55 07:35 - - 05:15 14:50 07:30
Maximum _ 1,2 C 1,6 C 88 % 88 % 982,6 hPa 0,0 l/m 15,3 km/h
W (3 Bft)
- - -2,0 C 1,1 C 34,3 km/h
NW (5 Bft)
Durchschnitt _ -1,8 C 1,6 C 73 % 75 % 979,3 hPa #0,0 l/m 5,0 km/h (1 Bft) W-SW - -6,2 C -5,3 C 6,6 km/h (2 Bft)